createdAt,value
2024-05-09T00:01:20.438Z,14.50
2024-05-09T00:04:13.061Z,13.60
2024-05-09T00:06:59.025Z,14.20
2024-05-09T00:09:52.006Z,12.80
2024-05-09T00:12:44.452Z,13.80
2024-05-09T00:15:37.326Z,12.60
2024-05-09T00:18:24.238Z,12.10
2024-05-09T00:21:17.367Z,11.80
2024-05-09T00:24:10.146Z,12.70
2024-05-09T00:27:02.651Z,12.00
2024-05-09T00:29:55.541Z,11.40
2024-05-09T00:32:38.560Z,10.50
2024-05-09T00:35:31.253Z,11.30
2024-05-09T00:38:23.923Z,10.90
2024-05-09T00:41:18.955Z,11.50
2024-05-09T00:44:56.889Z,10.40
2024-05-09T00:47:50.528Z,9.80
2024-05-09T00:50:45.752Z,10.20
2024-05-09T00:53:38.661Z,9.70
2024-05-09T00:56:31.642Z,10.40
2024-05-09T00:59:28.687Z,10.70
2024-05-09T01:02:22.350Z,9.70
2024-05-09T01:05:15.231Z,9.70
2024-05-09T01:08:09.028Z,10.10
2024-05-09T01:11:01.786Z,8.90
2024-05-09T01:13:54.127Z,8.60
2024-05-09T01:16:38.891Z,8.70
2024-05-09T01:19:22.383Z,9.30
2024-05-09T01:22:07.917Z,9.30
2024-05-09T01:24:59.910Z,8.50
2024-05-09T01:28:16.317Z,8.10
2024-05-09T01:31:08.636Z,8.50
2024-05-09T01:34:00.593Z,8.00
2024-05-09T01:36:43.192Z,9.00
2024-05-09T01:39:35.252Z,8.30
2024-05-09T01:44:05.760Z,8.60
2024-05-09T01:52:13.252Z,8.10
2024-05-09T01:55:06.323Z,8.00
2024-05-09T01:57:58.570Z,8.20
2024-05-09T02:00:43.727Z,8.60
2024-05-09T02:03:27.077Z,8.60
2024-05-09T02:06:19.157Z,9.40
2024-05-09T02:09:00.984Z,8.30
2024-05-09T02:11:53.189Z,8.70
2024-05-09T02:14:38.695Z,8.50
2024-05-09T02:17:31.069Z,8.80
2024-05-09T02:20:30.552Z,9.10
2024-05-09T02:23:27.792Z,9.10
2024-05-09T02:26:20.071Z,9.40
2024-05-09T02:29:04.651Z,9.20
2024-05-09T02:31:47.910Z,9.60
2024-05-09T02:34:40.107Z,9.80
2024-05-09T02:37:32.151Z,10.00
2024-05-09T02:40:33.208Z,9.10
2024-05-09T02:43:27.843Z,9.90
2024-05-09T02:46:19.915Z,10.20
2024-05-09T02:49:05.897Z,10.30
2024-05-09T02:51:58.135Z,10.00
2024-05-09T02:54:50.163Z,10.30
2024-05-09T02:57:42.191Z,10.20
2024-05-09T03:00:39.033Z,10.90
2024-05-09T03:03:23.807Z,10.70
2024-05-09T03:06:09.193Z,10.80
2024-05-09T03:09:01.627Z,10.70
2024-05-09T03:11:54.360Z,11.20
2024-05-09T03:14:35.552Z,10.80
2024-05-09T03:17:27.523Z,11.50
2024-05-09T03:20:20.409Z,11.50
2024-05-09T03:23:16.246Z,10.80
2024-05-09T03:26:12.697Z,10.90
2024-05-09T03:28:54.575Z,9.70
2024-05-09T03:31:46.817Z,10.80
2024-05-09T03:34:41.239Z,11.30
2024-05-09T03:37:33.239Z,10.70
2024-05-09T03:40:23.679Z,11.00
2024-05-09T03:43:10.904Z,10.50
2024-05-09T03:46:02.958Z,10.80
2024-05-09T03:48:55.179Z,11.20
2024-05-09T03:51:27.039Z,10.20
2024-05-09T03:54:03.584Z,10.00
2024-05-09T03:56:55.555Z,10.70
2024-05-09T03:59:41.376Z,10.50
2024-05-09T04:02:33.489Z,10.10
2024-05-09T04:05:26.171Z,9.30
2024-05-09T04:08:18.345Z,9.50
2024-05-09T04:11:10.529Z,9.20
2024-05-09T04:13:55.682Z,9.50
2024-05-09T04:16:49.882Z,8.80
2024-05-09T04:19:34.376Z,8.80
2024-05-09T04:22:26.615Z,9.00
2024-05-09T04:25:17.626Z,8.70
2024-05-09T04:28:09.954Z,7.90
2024-05-09T04:30:54.720Z,7.90
2024-05-09T04:33:46.823Z,7.80
2024-05-09T04:36:31.394Z,7.50
2024-05-09T04:39:23.372Z,7.00
2024-05-09T04:42:08.412Z,7.80
2024-05-09T04:44:56.431Z,6.60
2024-05-09T04:47:48.451Z,7.40
2024-05-09T04:50:40.689Z,6.60
2024-05-09T04:53:32.976Z,6.60
2024-05-09T04:56:24.193Z,7.10
2024-05-09T04:59:16.241Z,6.80
2024-05-09T05:02:08.572Z,6.70
2024-05-09T05:05:00.973Z,6.50
2024-05-09T05:07:53.156Z,6.20
2024-05-09T05:10:38.036Z,6.50
2024-05-09T05:13:36.669Z,6.20
2024-05-09T05:16:55.093Z,6.40
2024-05-09T05:19:47.340Z,6.50
2024-05-09T05:22:42.941Z,6.40
2024-05-09T05:25:35.157Z,5.30
2024-05-09T05:28:27.064Z,5.20
2024-05-09T05:31:19.377Z,4.90
2024-05-09T05:34:11.707Z,5.30
2024-05-09T05:36:56.580Z,4.70
2024-05-09T05:39:48.556Z,5.40
2024-05-09T05:42:40.660Z,12.10
2024-05-09T05:45:56.587Z,6.00
2024-05-09T05:48:48.826Z,13.80
2024-05-09T05:51:41.052Z,12.30
2024-05-09T05:54:31.778Z,6.20
2024-05-09T05:57:23.892Z,5.60
2024-05-09T06:00:26.040Z,5.40
2024-05-09T06:03:22.565Z,4.80
2024-05-09T06:06:15.886Z,5.30
2024-05-09T06:09:07.836Z,5.30
2024-05-09T06:17:14.224Z,4.90
2024-05-09T06:20:11.041Z,5.00
2024-05-09T06:23:08.346Z,5.70
2024-05-09T06:26:00.613Z,4.90
2024-05-09T06:28:51.302Z,4.80
2024-05-09T06:31:43.735Z,4.80
2024-05-09T06:34:37.008Z,5.20
2024-05-09T06:37:12.385Z,5.40
2024-05-09T06:40:07.282Z,5.30
2024-05-09T06:42:59.003Z,5.00
2024-05-09T06:45:53.025Z,5.00
2024-05-09T06:48:48.099Z,4.60
2024-05-09T06:51:33.164Z,5.00
2024-05-09T06:54:25.077Z,4.80
2024-05-09T06:57:08.415Z,4.30
2024-05-09T07:00:00.669Z,4.10
2024-05-09T07:02:52.937Z,5.00
2024-05-09T07:05:46.254Z,5.00
2024-05-09T07:08:39.057Z,4.70
2024-05-09T07:11:20.298Z,4.20
2024-05-09T07:14:12.454Z,4.50
2024-05-09T07:16:57.352Z,4.10
2024-05-09T07:19:49.640Z,4.60
2024-05-09T07:22:41.879Z,4.20
2024-05-09T07:25:22.909Z,4.00
2024-05-09T07:28:10.787Z,3.80
2024-05-09T07:32:37.837Z,3.60
2024-05-09T07:35:22.890Z,3.70
2024-05-09T07:38:15.250Z,4.00
2024-05-09T07:40:52.756Z,4.10
2024-05-09T07:43:35.958Z,4.40
2024-05-09T07:50:55.874Z,3.60
2024-05-09T07:53:30.006Z,3.50
2024-05-09T07:55:28.153Z,3.80
2024-05-09T07:58:20.173Z,4.30
2024-05-09T08:02:46.839Z,4.00
2024-05-09T08:05:39.070Z,3.60
2024-05-09T08:08:31.295Z,3.80
2024-05-09T08:11:08.614Z,4.10
2024-05-09T08:14:48.725Z,3.70
2024-05-09T08:28:09.243Z,3.20
2024-05-09T08:31:05.162Z,3.70
2024-05-09T08:36:43.760Z,3.00
2024-05-09T08:39:36.783Z,2.90
2024-05-09T08:42:35.838Z,3.10
2024-05-09T08:45:29.585Z,3.00
2024-05-09T08:48:26.830Z,3.20
2024-05-09T08:51:19.161Z,4.10
2024-05-09T08:54:03.956Z,3.10
2024-05-09T08:56:56.255Z,3.30
2024-05-09T08:59:50.669Z,2.70
2024-05-09T09:02:44.382Z,3.10
2024-05-09T09:05:21.350Z,3.00
2024-05-09T09:08:08.430Z,3.20
2024-05-09T09:10:55.542Z,2.90
2024-05-09T09:13:46.040Z,2.80
2024-05-09T09:16:38.168Z,3.00
2024-05-09T09:19:30.327Z,3.60
2024-05-09T09:22:22.600Z,3.00
2024-05-09T09:25:14.525Z,2.90
2024-05-09T09:28:07.727Z,2.60
2024-05-09T09:31:05.380Z,2.90
2024-05-09T09:33:57.946Z,3.10
2024-05-09T09:36:51.400Z,3.10
2024-05-09T09:39:48.826Z,2.50
2024-05-09T09:42:43.584Z,2.50
2024-05-09T09:45:36.922Z,2.50
2024-05-09T09:48:29.050Z,3.00
2024-05-09T09:51:22.535Z,2.50
2024-05-09T09:54:14.726Z,2.70
2024-05-09T09:57:08.055Z,2.50
2024-05-09T10:00:01.543Z,4.30
2024-05-09T10:02:53.554Z,3.40
2024-05-09T10:05:47.366Z,2.70
2024-05-09T10:08:32.878Z,3.00
2024-05-09T10:11:25.438Z,3.30
2024-05-09T10:14:22.803Z,3.00
2024-05-09T10:17:04.638Z,2.90
2024-05-09T10:19:45.637Z,2.90
2024-05-09T10:22:30.835Z,3.10
2024-05-09T10:25:23.745Z,2.70
2024-05-09T10:28:04.920Z,3.20
2024-05-09T10:30:37.459Z,2.80
2024-05-09T10:33:22.275Z,2.70
2024-05-09T10:36:13.560Z,2.70
2024-05-09T10:38:45.605Z,2.50
2024-05-09T10:41:40.363Z,2.70
2024-05-09T10:44:24.736Z,2.80
2024-05-09T10:47:20.390Z,2.60
2024-05-09T10:50:22.211Z,2.70
2024-05-09T10:53:11.501Z,2.80
2024-05-09T10:56:03.932Z,2.20
2024-05-09T10:58:51.695Z,2.80
2024-05-09T11:04:17.770Z,3.00
2024-05-09T11:07:11.364Z,2.90
2024-05-09T11:10:04.901Z,3.80
2024-05-09T11:12:48.487Z,2.80
2024-05-09T11:15:43.904Z,2.60
2024-05-09T11:18:33.457Z,2.50
2024-05-09T11:21:28.442Z,2.70
2024-05-09T11:24:20.712Z,2.50
2024-05-09T11:27:13.533Z,2.90
2024-05-09T11:30:09.205Z,2.80
2024-05-09T11:32:56.035Z,2.80
2024-05-09T11:35:48.527Z,2.80
2024-05-09T11:38:33.492Z,2.50
2024-05-09T11:41:27.060Z,2.70
2024-05-09T11:44:08.730Z,2.70
2024-05-09T11:46:53.297Z,2.80
2024-05-09T11:49:45.904Z,3.00
2024-05-09T11:52:37.960Z,3.00
2024-05-09T11:57:07.708Z,2.70
2024-05-09T11:59:59.724Z,2.70
2024-05-09T12:02:52.574Z,2.90
2024-05-09T12:05:38.611Z,2.50
2024-05-09T12:08:22.254Z,2.60
2024-05-09T12:11:04.464Z,2.30
2024-05-09T12:13:56.564Z,2.60
2024-05-09T12:16:48.812Z,2.40
2024-05-09T12:19:40.958Z,2.10
2024-05-09T12:22:33.048Z,2.30
2024-05-09T12:25:25.158Z,2.80
2024-05-09T12:28:10.022Z,2.40
2024-05-09T12:30:42.316Z,2.70
2024-05-09T12:33:14.635Z,2.50
2024-05-09T12:35:49.171Z,2.50
2024-05-09T12:38:25.052Z,2.40
2024-05-09T12:41:17.153Z,2.10
2024-05-09T12:43:49.570Z,2.50
2024-05-09T12:46:24.317Z,3.10
2024-05-09T12:49:06.870Z,2.40
2024-05-09T12:51:42.128Z,2.30
2024-05-09T12:54:14.101Z,2.10
2024-05-09T12:56:46.008Z,2.50
2024-05-09T12:59:38.342Z,2.40
2024-05-09T13:02:10.499Z,2.60
2024-05-09T13:04:47.379Z,2.10
2024-05-09T13:07:29.530Z,2.60
2024-05-09T13:10:29.055Z,2.40
2024-05-09T13:13:04.473Z,2.10
2024-05-09T13:15:37.496Z,2.70
2024-05-09T13:18:12.495Z,2.30
2024-05-09T13:21:04.667Z,2.40
2024-05-09T13:23:39.747Z,2.00
2024-05-09T13:26:14.678Z,2.40
2024-05-09T13:28:48.792Z,2.30
2024-05-09T13:31:20.817Z,2.20
2024-05-09T13:33:55.412Z,2.40
2024-05-09T13:36:38.443Z,2.30
2024-05-09T13:39:10.902Z,2.30
2024-05-09T13:41:45.732Z,2.70
2024-05-09T13:44:17.644Z,2.60
2024-05-09T13:46:52.528Z,2.60
2024-05-09T13:49:44.675Z,2.30
2024-05-09T13:52:29.410Z,2.10
2024-05-09T13:55:01.568Z,2.20
2024-05-09T13:57:33.735Z,2.30
2024-05-09T14:00:38.042Z,2.40
2024-05-09T14:03:19.218Z,2.30
2024-05-09T14:06:03.474Z,2.40
2024-05-09T14:08:35.544Z,2.30
2024-05-09T14:11:07.673Z,2.70
2024-05-09T14:13:43.244Z,2.10
2024-05-09T14:16:26.357Z,2.20
2024-05-09T14:19:09.113Z,2.40
2024-05-09T14:21:41.072Z,2.10
2024-05-09T14:24:33.398Z,2.10
2024-05-09T14:27:15.664Z,2.40
2024-05-09T14:30:15.056Z,2.10
2024-05-09T14:33:16.220Z,2.10
2024-05-09T14:36:09.279Z,2.00
2024-05-09T14:38:52.279Z,2.20
2024-05-09T14:41:44.290Z,2.30
2024-05-09T14:44:36.269Z,2.60
2024-05-09T14:47:28.326Z,2.40
2024-05-09T14:50:27.875Z,2.50
2024-05-09T14:53:19.386Z,2.20
2024-05-09T14:56:11.804Z,2.10
2024-05-09T14:59:03.868Z,2.30
2024-05-09T15:01:56.120Z,2.50
2024-05-09T15:04:48.424Z,3.20
2024-05-09T15:07:31.706Z,2.20
2024-05-09T15:10:31.517Z,2.60
2024-05-09T15:13:20.288Z,1.90
2024-05-09T15:16:12.854Z,2.10
2024-05-09T15:18:59.522Z,2.10
2024-05-09T15:21:44.572Z,2.20
2024-05-09T15:24:35.813Z,2.40
2024-05-09T15:27:20.929Z,2.20
2024-05-09T15:30:10.407Z,2.20
2024-05-09T15:33:04.642Z,2.40
2024-05-09T15:35:47.532Z,2.20
2024-05-09T15:38:40.182Z,2.20
2024-05-09T15:41:32.084Z,2.10
2024-05-09T15:44:16.997Z,2.10
2024-05-09T15:46:58.927Z,2.10
2024-05-09T15:49:38.463Z,2.50
2024-05-09T15:52:30.664Z,2.20
2024-05-09T15:55:18.742Z,2.20
2024-05-09T15:58:02.954Z,1.90
2024-05-09T16:00:55.589Z,2.30
2024-05-09T16:03:47.927Z,2.20
2024-05-09T16:06:40.591Z,2.30
2024-05-09T16:09:32.724Z,2.20
2024-05-09T16:12:23.483Z,2.80
2024-05-09T16:15:09.136Z,2.40
2024-05-09T16:18:01.385Z,2.70
2024-05-09T16:24:23.978Z,2.40
2024-05-09T16:27:16.084Z,2.20
2024-05-09T16:30:04.066Z,3.30
2024-05-09T16:32:45.225Z,11.80
2024-05-09T16:35:28.603Z,15.70
2024-05-09T16:38:20.993Z,6.60
2024-05-09T16:41:14.846Z,4.70
2024-05-09T16:44:03.964Z,4.20
2024-05-09T16:46:46.971Z,3.30
2024-05-09T16:49:39.115Z,2.70
2024-05-09T16:52:31.218Z,3.20
2024-05-09T16:55:23.220Z,2.50
2024-05-09T16:58:15.623Z,2.40
2024-05-09T17:01:07.757Z,2.90
2024-05-09T17:04:00.141Z,2.50
2024-05-09T17:06:50.924Z,2.40
2024-05-09T17:09:42.926Z,2.70
2024-05-09T17:12:35.111Z,3.00
2024-05-09T17:15:27.287Z,3.10
2024-05-09T17:18:19.663Z,3.20
2024-05-09T17:21:11.636Z,3.20
2024-05-09T17:24:03.802Z,3.50
2024-05-09T17:26:55.760Z,3.10
2024-05-09T17:29:48.160Z,4.00
2024-05-09T17:32:40.781Z,5.40
2024-05-09T17:35:33.139Z,4.00
2024-05-09T17:38:26.074Z,3.60
2024-05-09T17:41:11.811Z,3.60
2024-05-09T17:44:06.278Z,3.30
2024-05-09T17:46:50.811Z,3.80
2024-05-09T17:49:43.039Z,3.20
2024-05-09T17:52:35.188Z,4.10
2024-05-09T17:55:12.773Z,3.90
2024-05-09T17:58:05.543Z,4.00
2024-05-09T18:00:57.907Z,3.80
2024-05-09T18:03:50.252Z,4.10
2024-05-09T18:06:34.997Z,3.70
2024-05-09T18:09:17.086Z,4.00
2024-05-09T18:12:10.168Z,3.70
2024-05-09T18:15:02.677Z,3.80
2024-05-09T18:17:55.129Z,4.10
2024-05-09T18:20:47.291Z,3.60
2024-05-09T18:23:39.542Z,3.80
2024-05-09T18:26:31.565Z,3.80
2024-05-09T18:29:23.704Z,3.80
2024-05-09T18:32:15.598Z,4.20
2024-05-09T18:35:08.883Z,3.70
2024-05-09T18:37:55.441Z,4.20
2024-05-09T18:40:49.257Z,3.70
2024-05-09T18:43:45.237Z,4.20
2024-05-09T18:46:40.624Z,3.60
2024-05-09T18:49:25.470Z,4.10
2024-05-09T18:52:11.436Z,3.70
2024-05-09T18:55:04.386Z,3.70
2024-05-09T18:57:56.599Z,3.70
2024-05-09T19:00:40.232Z,3.50
2024-05-09T19:03:35.118Z,4.10
2024-05-09T19:06:27.269Z,5.00
2024-05-09T19:09:19.430Z,4.40
2024-05-09T19:12:11.546Z,5.00
2024-05-09T19:15:03.727Z,3.60
2024-05-09T19:17:55.837Z,4.40
2024-05-09T19:20:48.054Z,3.90
2024-05-09T19:23:38.084Z,3.90
2024-05-09T19:26:33.005Z,3.80
2024-05-09T19:29:16.755Z,4.50
2024-05-09T19:32:01.890Z,4.70
2024-05-09T19:34:46.701Z,4.40
2024-05-09T19:37:37.219Z,4.50
2024-05-09T19:40:29.003Z,4.50
2024-05-09T19:44:59.170Z,4.70
2024-05-09T19:47:35.548Z,3.90
2024-05-09T19:50:36.853Z,4.40
2024-05-09T19:53:34.361Z,4.60
2024-05-09T19:56:26.549Z,5.10
2024-05-09T19:59:08.684Z,4.20
2024-05-09T20:02:00.978Z,4.40
2024-05-09T20:04:53.136Z,5.00
2024-05-09T20:07:38.018Z,4.50
2024-05-09T20:10:33.025Z,4.80
2024-05-09T20:13:17.079Z,5.30
2024-05-09T20:16:10.350Z,4.60
2024-05-09T20:19:02.551Z,5.20
2024-05-09T20:21:54.743Z,4.80
2024-05-09T20:30:01.125Z,5.20
2024-05-09T20:32:53.155Z,5.10
2024-05-09T20:35:43.661Z,4.90
2024-05-09T20:38:35.906Z,5.40
2024-05-09T20:41:27.944Z,4.80
2024-05-09T20:44:19.837Z,5.00
2024-05-09T20:47:12.081Z,4.80
2024-05-09T20:50:09.163Z,5.10
2024-05-09T20:52:59.023Z,5.20
2024-05-09T20:55:35.400Z,5.30
2024-05-09T20:58:17.723Z,5.40
2024-05-09T21:06:31.613Z,5.70
2024-05-09T21:09:25.007Z,5.90
2024-05-09T21:12:15.580Z,5.80
2024-05-09T21:14:58.976Z,5.90
2024-05-09T21:17:48.771Z,5.70
2024-05-09T21:20:39.099Z,5.80
2024-05-09T21:23:53.732Z,6.80
2024-05-09T21:26:36.651Z,6.90
2024-05-09T21:29:26.309Z,6.00
2024-05-09T21:32:15.789Z,7.10
2024-05-09T21:35:06.292Z,7.10
2024-05-09T21:37:55.600Z,6.70
2024-05-09T21:40:37.459Z,7.10
2024-05-09T21:43:28.640Z,7.10
2024-05-09T21:46:17.912Z,7.00
2024-05-09T21:49:07.333Z,7.20
2024-05-09T21:51:49.978Z,7.10
2024-05-09T21:54:29.213Z,7.80
2024-05-09T21:57:18.498Z,7.60
2024-05-09T21:59:57.508Z,8.60
2024-05-09T22:02:32.391Z,8.20
2024-05-09T22:05:21.666Z,8.40
2024-05-09T22:13:27.086Z,8.70
2024-05-09T22:16:19.881Z,8.70
2024-05-09T22:19:03.823Z,8.40
2024-05-09T22:21:56.685Z,8.70
2024-05-09T22:24:48.425Z,9.10
2024-05-09T22:27:42.054Z,7.90
2024-05-09T22:30:38.477Z,8.10
2024-05-09T22:33:32.977Z,8.30
2024-05-09T22:36:25.902Z,8.60
2024-05-09T22:39:18.374Z,10.20
2024-05-09T22:42:11.062Z,10.20
2024-05-09T22:45:04.153Z,12.70
2024-05-09T22:47:56.943Z,13.80
2024-05-09T22:50:49.195Z,14.30
2024-05-09T22:53:42.098Z,15.90
2024-05-09T22:56:35.586Z,16.30
2024-05-09T22:59:26.994Z,16.90
2024-05-09T23:02:12.937Z,16.60
2024-05-09T23:05:05.156Z,16.50
2024-05-09T23:07:58.513Z,16.70
2024-05-09T23:10:51.266Z,12.30
2024-05-09T23:13:44.261Z,12.70
2024-05-09T23:17:01.475Z,13.20
2024-05-09T23:24:41.031Z,13.50
2024-05-09T23:27:33.186Z,13.30
2024-05-09T23:33:20.381Z,12.80
2024-05-09T23:36:12.529Z,13.00
2024-05-09T23:39:04.741Z,12.80
2024-05-09T23:41:56.796Z,13.90
2024-05-09T23:44:48.811Z,13.90
2024-05-09T23:47:41.184Z,12.80
2024-05-09T23:50:33.633Z,13.20
2024-05-09T23:53:28.669Z,12.90
2024-05-09T23:56:21.445Z,12.30
2024-05-09T23:59:13.246Z,13.50
